createdAt,value
2023-01-04T00:02:19.524Z,73.20
2023-01-04T00:07:22.389Z,81.50
2023-01-04T00:12:24.958Z,87.90
2023-01-04T00:17:27.470Z,90.80
2023-01-04T00:22:34.521Z,97.70
2023-01-04T00:27:37.205Z,99.90
2023-01-04T00:32:39.808Z,99.90
2023-01-04T00:37:45.728Z,99.90
2023-01-04T00:42:52.641Z,99.90
2023-01-04T00:47:55.266Z,99.90
2023-01-04T00:52:57.772Z,99.90
2023-01-04T00:58:00.345Z,99.90
2023-01-04T01:03:03.544Z,99.90
2023-01-04T01:08:24.817Z,99.90
2023-01-04T01:13:27.389Z,99.90
2023-01-04T01:18:30.416Z,99.90
2023-01-04T01:23:32.978Z,99.90
2023-01-04T01:28:36.559Z,99.90
2023-01-04T01:33:40.669Z,99.90
2023-01-04T01:38:44.377Z,99.90
2023-01-04T01:43:55.361Z,99.90
2023-01-04T01:49:03.607Z,99.90
2023-01-04T01:54:12.249Z,99.90
2023-01-04T01:59:17.070Z,99.90
2023-01-04T02:04:19.896Z,99.90
2023-01-04T02:09:23.735Z,99.90
2023-01-04T02:14:30.113Z,99.90
2023-01-04T02:19:51.586Z,99.90
2023-01-04T02:25:39.541Z,99.90
2023-01-04T02:30:44.865Z,99.90
2023-01-04T02:36:00.088Z,99.90
2023-01-04T02:41:15.825Z,99.90
2023-01-04T02:46:26.890Z,99.90
2023-01-04T02:51:36.147Z,99.90
2023-01-04T02:56:50.383Z,99.90
2023-01-04T03:02:36.202Z,99.90
2023-01-04T03:07:58.612Z,99.90
2023-01-04T03:13:12.033Z,99.90
2023-01-04T03:18:26.246Z,99.90
2023-01-04T03:23:50.867Z,99.90
2023-01-04T03:29:14.435Z,99.90
2023-01-04T03:34:36.435Z,99.90
2023-01-04T03:40:12.074Z,99.90
2023-01-04T03:45:38.662Z,99.90
2023-01-04T03:51:01.029Z,99.90
2023-01-04T03:56:03.996Z,99.90
2023-01-04T04:01:07.346Z,99.90
2023-01-04T04:06:28.327Z,99.90
2023-01-04T04:11:30.984Z,99.90
2023-01-04T04:16:33.596Z,99.90
2023-01-04T04:21:36.526Z,99.90
2023-01-04T04:26:39.115Z,99.90
2023-01-04T04:31:41.694Z,99.90
2023-01-04T04:36:44.438Z,99.90
2023-01-04T04:41:47.233Z,99.90
2023-01-04T04:46:50.369Z,99.90
2023-01-04T04:51:53.255Z,99.90
2023-01-04T04:56:56.010Z,99.90
2023-01-04T05:01:58.770Z,99.90
2023-01-04T05:07:01.516Z,99.90
2023-01-04T05:12:22.516Z,99.90
2023-01-04T05:17:25.055Z,99.90
2023-01-04T05:22:27.529Z,99.90
2023-01-04T05:27:30.194Z,99.90
2023-01-04T05:32:32.802Z,99.90
2023-01-04T05:37:35.373Z,99.90
2023-01-04T05:42:38.129Z,99.90
2023-01-04T05:47:41.162Z,99.90
2023-01-04T05:52:44.329Z,99.90
2023-01-04T05:57:47.189Z,99.90
2023-01-04T06:02:49.858Z,99.90
2023-01-04T06:07:53.154Z,99.90
2023-01-04T06:12:55.688Z,99.90
2023-01-04T06:17:58.221Z,99.90
2023-01-04T06:23:00.896Z,99.90
2023-01-04T06:28:03.500Z,99.90
2023-01-04T06:33:06.080Z,99.90
2023-01-04T06:38:08.614Z,99.90
2023-01-04T06:43:11.149Z,99.90
2023-01-04T06:48:18.184Z,99.90
2023-01-04T06:53:21.591Z,99.90
2023-01-04T06:58:24.196Z,99.90
2023-01-04T07:03:26.870Z,99.90
2023-01-04T07:08:30.321Z,99.90
2023-01-04T07:13:33.022Z,99.90
2023-01-04T07:18:36.599Z,99.90
2023-01-04T07:23:39.182Z,99.90
2023-01-04T07:29:00.257Z,99.90
2023-01-04T07:34:02.853Z,99.90
2023-01-04T07:39:05.844Z,99.90
2023-01-04T07:44:09.788Z,99.90
2023-01-04T07:49:17.343Z,99.90
2023-01-04T07:54:21.050Z,99.90
2023-01-04T07:59:23.787Z,99.90
2023-01-04T08:04:32.706Z,99.90
2023-01-04T08:09:37.399Z,99.90
2023-01-04T08:14:39.928Z,99.90
2023-01-04T08:19:42.432Z,99.90
2023-01-04T08:24:45.846Z,99.90
2023-01-04T08:29:51.156Z,99.90
2023-01-04T08:34:54.342Z,99.90
2023-01-04T08:39:56.885Z,99.90
2023-01-04T08:45:01.786Z,99.90
2023-01-04T08:50:10.413Z,99.90
2023-01-04T08:55:16.796Z,99.90
2023-01-04T09:00:21.899Z,99.90
2023-01-04T09:05:26.106Z,99.90
2023-01-04T09:10:28.686Z,99.90
2023-01-04T09:15:32.532Z,99.90
2023-01-04T09:20:35.141Z,99.90
2023-01-04T09:25:40.181Z,99.90
2023-01-04T09:30:42.736Z,99.90
2023-01-04T09:35:45.384Z,99.90
2023-01-04T09:40:57.242Z,99.90
2023-01-04T09:46:07.941Z,99.90
2023-01-04T09:51:17.986Z,99.90
2023-01-04T09:56:39.329Z,1.00
2023-01-04T10:01:49.833Z,1.00
2023-01-04T10:06:53.126Z,99.90
2023-01-04T10:12:26.329Z,99.90
2023-01-04T10:23:28.261Z,7.20
2023-01-04T10:28:44.462Z,1.00
2023-01-04T10:33:58.099Z,1.00
2023-01-04T10:39:15.206Z,1.00
2023-01-04T10:44:26.796Z,99.90
2023-01-04T10:49:37.242Z,99.90
2023-01-04T10:55:08.938Z,1.00
2023-01-04T11:00:20.782Z,99.90
2023-01-04T11:05:30.808Z,20.20
2023-01-04T11:10:49.130Z,1.00
2023-01-04T11:15:52.832Z,1.00
2023-01-04T11:20:55.708Z,1.00
2023-01-04T11:26:01.772Z,99.90
2023-01-04T11:31:33.228Z,1.00
2023-01-04T11:36:39.007Z,99.90
2023-01-04T11:42:17.050Z,1.00
2023-01-04T11:47:24.334Z,1.00
2023-01-04T11:52:27.790Z,1.00
2023-01-04T11:57:30.441Z,34.30
2023-01-04T12:02:59.974Z,67.40
2023-01-04T12:07:56.059Z,93.80
2023-01-04T12:13:01.869Z,99.90
2023-01-04T12:18:34.569Z,99.90
2023-01-04T12:23:37.027Z,99.90
2023-01-04T12:28:48.504Z,99.90
2023-01-04T12:33:59.227Z,99.90
2023-01-04T12:39:15.236Z,99.90
2023-01-04T12:44:36.532Z,99.90
2023-01-04T12:49:42.214Z,99.90
2023-01-04T12:54:51.199Z,99.90
2023-01-04T12:59:57.810Z,99.90
2023-01-04T13:05:45.422Z,99.90
2023-01-04T13:10:47.317Z,99.90
2023-01-04T13:16:18.338Z,99.90
2023-01-04T13:21:32.048Z,99.90
2023-01-04T13:26:37.076Z,99.90
2023-01-04T13:31:56.753Z,99.90
2023-01-04T13:37:08.539Z,99.90
2023-01-04T13:42:36.498Z,99.90
2023-01-04T13:47:43.695Z,99.90
2023-01-04T13:52:59.935Z,99.90
2023-01-04T13:58:19.182Z,99.90
2023-01-04T14:03:37.109Z,99.90
2023-01-04T14:08:41.678Z,99.90
2023-01-04T14:13:48.389Z,99.90
2023-01-04T14:18:51.057Z,99.90
2023-01-04T14:23:53.600Z,99.90
2023-01-04T14:28:56.343Z,99.90
2023-01-04T14:33:59.182Z,99.90
2023-01-04T14:39:05.412Z,99.90
2023-01-04T14:44:16.782Z,99.90
2023-01-04T14:49:21.993Z,99.90
2023-01-04T14:54:26.753Z,99.90
2023-01-04T14:59:29.294Z,99.90
2023-01-04T15:04:31.840Z,99.90
2023-01-04T15:09:36.790Z,99.90
2023-01-04T15:14:39.381Z,99.90
2023-01-04T15:19:41.869Z,99.90
2023-01-04T15:24:44.432Z,99.90
2023-01-04T15:29:46.963Z,99.90
2023-01-04T15:34:53.248Z,99.90
2023-01-04T15:40:01.908Z,99.90
2023-01-04T15:45:06.282Z,99.90
2023-01-04T15:50:09.057Z,99.90
2023-01-04T15:55:13.396Z,99.90
2023-01-04T16:00:16.815Z,99.90
2023-01-04T16:05:21.008Z,99.90
2023-01-04T16:10:23.952Z,99.90
2023-01-04T16:15:26.676Z,99.90
2023-01-04T16:20:30.593Z,99.90
2023-01-04T16:25:33.050Z,99.90
2023-01-04T16:30:35.773Z,99.90
2023-01-04T16:35:38.291Z,99.90
2023-01-04T16:40:42.681Z,99.90
2023-01-04T16:45:45.195Z,99.90
2023-01-04T16:50:47.709Z,99.90
2023-01-04T16:55:51.638Z,99.90
2023-01-04T17:00:55.083Z,99.90
2023-01-04T17:05:57.700Z,99.90
2023-01-04T17:11:38.555Z,99.90
2023-01-04T17:16:34.462Z,99.90
2023-01-04T17:21:37.672Z,99.90
2023-01-04T17:26:40.956Z,99.90
2023-01-04T17:31:45.084Z,99.90
2023-01-04T17:36:49.757Z,99.90
2023-01-04T17:41:52.242Z,99.90
2023-01-04T17:46:54.766Z,99.90
2023-01-04T17:51:57.411Z,99.90
2023-01-04T17:56:59.925Z,99.90
2023-01-04T18:02:02.632Z,99.90
2023-01-04T18:07:05.215Z,99.90
2023-01-04T18:12:08.239Z,99.90
2023-01-04T18:17:10.944Z,99.90
2023-01-04T18:22:13.533Z,99.90
2023-01-04T18:27:25.685Z,99.90
2023-01-04T18:32:28.875Z,99.90
2023-01-04T18:37:38.200Z,99.90
2023-01-04T18:42:40.771Z,99.90
2023-01-04T18:47:47.619Z,99.90
2023-01-04T18:52:50.178Z,99.90
2023-01-04T18:57:52.680Z,99.90
2023-01-04T19:02:56.206Z,99.90
2023-01-04T19:07:58.736Z,99.90
2023-01-04T19:13:01.755Z,99.90
2023-01-04T19:18:04.359Z,99.90
2023-01-04T19:23:08.483Z,99.90
2023-01-04T19:28:12.446Z,99.90
2023-01-04T19:33:15.075Z,99.90
2023-01-04T19:38:17.573Z,99.90
2023-01-04T19:43:20.132Z,99.90
2023-01-04T19:48:23.886Z,99.90
2023-01-04T19:53:26.448Z,99.90
2023-01-04T19:58:28.982Z,99.90
2023-01-04T20:03:31.562Z,99.90
2023-01-04T20:08:34.352Z,99.90
2023-01-04T20:13:37.717Z,99.90
2023-01-04T20:18:40.272Z,99.90
2023-01-04T20:23:43.761Z,99.90
2023-01-04T20:28:46.487Z,99.90
2023-01-04T20:33:49.168Z,99.90
2023-01-04T20:38:51.797Z,99.90
2023-01-04T20:43:54.310Z,99.90
2023-01-04T20:48:56.860Z,99.90
2023-01-04T20:53:59.919Z,99.90
2023-01-04T20:59:02.454Z,99.90
2023-01-04T21:04:05.247Z,99.90
2023-01-04T21:09:08.201Z,99.90
2023-01-04T21:14:12.583Z,99.90
2023-01-04T21:19:15.083Z,99.90
2023-01-04T21:24:17.595Z,99.90
2023-01-04T21:29:20.192Z,99.90
2023-01-04T21:34:23.228Z,99.90
2023-01-04T21:39:25.754Z,99.90
2023-01-04T21:44:28.480Z,99.90
2023-01-04T21:49:30.975Z,99.90
2023-01-04T21:54:33.404Z,99.90
2023-01-04T21:59:36.343Z,99.90
2023-01-04T22:04:38.828Z,99.90
2023-01-04T22:09:41.492Z,99.90
2023-01-04T22:14:44.081Z,99.90
2023-01-04T22:19:46.839Z,99.90
2023-01-04T22:24:49.261Z,99.90
2023-01-04T22:29:51.613Z,99.90
2023-01-04T22:34:54.054Z,99.90
2023-01-04T22:39:56.437Z,99.90
2023-01-04T22:44:58.879Z,99.90
2023-01-04T22:50:01.715Z,99.90
2023-01-04T22:55:04.555Z,99.90
2023-01-04T23:00:07.915Z,99.90
2023-01-04T23:05:11.684Z,99.90
2023-01-04T23:10:14.227Z,99.90
2023-01-04T23:15:17.813Z,99.90
2023-01-04T23:20:20.683Z,99.90
2023-01-04T23:25:23.440Z,99.90
2023-01-04T23:30:27.728Z,99.90
2023-01-04T23:35:30.255Z,99.90
2023-01-04T23:40:32.824Z,99.90
2023-01-04T23:45:38.574Z,99.90
2023-01-04T23:50:41.065Z,99.90
2023-01-04T23:55:43.547Z,99.90
